createdAt,value
2017-08-29T00:00:12.519Z,12.50
2017-08-29T00:02:38.692Z,12.50
2017-08-29T00:05:04.882Z,13.70
2017-08-29T00:07:31.051Z,12.30
2017-08-29T00:09:57.200Z,14.33
2017-08-29T00:12:23.327Z,12.10
2017-08-29T00:14:49.483Z,12.47
2017-08-29T00:17:15.682Z,13.80
2017-08-29T00:19:41.855Z,13.20
2017-08-29T00:22:07.991Z,12.97
2017-08-29T00:24:34.163Z,14.77
2017-08-29T00:27:00.302Z,13.97
2017-08-29T00:29:26.526Z,12.97
2017-08-29T00:31:52.675Z,12.80
2017-08-29T00:34:18.880Z,12.80
2017-08-29T00:36:45.026Z,13.70
2017-08-29T00:39:11.211Z,13.23
2017-08-29T00:41:37.362Z,13.67
2017-08-29T00:44:03.535Z,12.83
2017-08-29T00:46:29.680Z,14.60
2017-08-29T00:48:55.868Z,13.87
2017-08-29T00:51:22.122Z,13.23
2017-08-29T00:53:48.285Z,13.27
2017-08-29T00:56:14.456Z,14.40
2017-08-29T00:58:40.648Z,14.53
2017-08-29T01:01:06.842Z,15.00
2017-08-29T01:03:33.007Z,13.93
2017-08-29T01:05:59.175Z,14.50
2017-08-29T01:08:25.352Z,14.53
2017-08-29T01:10:52.587Z,13.73
2017-08-29T01:13:18.755Z,13.10
2017-08-29T01:15:44.981Z,13.37
2017-08-29T01:18:11.159Z,14.13
2017-08-29T01:20:37.342Z,14.93
2017-08-29T01:23:03.567Z,15.00
2017-08-29T01:25:29.785Z,15.30
2017-08-29T01:27:55.967Z,15.87
2017-08-29T01:30:22.183Z,15.53
2017-08-29T01:32:48.402Z,15.37
2017-08-29T01:35:14.648Z,14.80
2017-08-29T01:37:40.835Z,15.17
2017-08-29T01:40:07.077Z,17.60
2017-08-29T01:42:33.265Z,16.40
2017-08-29T01:44:59.467Z,15.67
2017-08-29T01:47:25.662Z,17.50
2017-08-29T01:49:51.843Z,16.20
2017-08-29T01:52:18.030Z,17.73
2017-08-29T01:54:44.215Z,18.23
2017-08-29T01:57:10.412Z,18.20
2017-08-29T01:59:36.591Z,16.67
2017-08-29T02:02:02.808Z,16.47
2017-08-29T02:04:28.977Z,15.90
2017-08-29T02:06:55.153Z,16.23
2017-08-29T02:09:21.458Z,16.60
2017-08-29T02:11:47.651Z,16.00
2017-08-29T02:14:13.806Z,16.23
2017-08-29T02:16:39.963Z,16.00
2017-08-29T02:19:06.098Z,16.20
2017-08-29T02:21:32.239Z,15.53
2017-08-29T02:23:58.406Z,15.07
2017-08-29T02:26:24.572Z,15.10
2017-08-29T02:28:50.884Z,17.00
2017-08-29T02:31:17.046Z,15.93
2017-08-29T02:33:43.199Z,14.73
2017-08-29T02:36:09.404Z,16.10
2017-08-29T02:38:35.564Z,16.43
2017-08-29T02:41:01.702Z,16.27
2017-08-29T02:43:27.854Z,15.20
2017-08-29T02:45:54.026Z,14.63
2017-08-29T02:48:20.207Z,13.80
2017-08-29T02:50:46.330Z,13.67
2017-08-29T02:53:12.524Z,13.37
2017-08-29T02:55:38.695Z,14.70
2017-08-29T02:58:04.880Z,13.80
2017-08-29T03:00:31.015Z,13.97
2017-08-29T03:02:57.184Z,15.07
2017-08-29T03:05:23.312Z,14.57
2017-08-29T03:07:49.461Z,13.80
2017-08-29T03:10:15.586Z,13.87
2017-08-29T03:12:41.760Z,15.03
2017-08-29T03:15:07.919Z,16.13
2017-08-29T03:17:34.084Z,14.80
2017-08-29T03:20:00.242Z,15.40
2017-08-29T03:22:26.427Z,16.20
2017-08-29T03:24:52.603Z,15.40
2017-08-29T03:27:18.782Z,15.33
2017-08-29T03:29:44.976Z,13.73
2017-08-29T03:32:11.183Z,14.40
2017-08-29T03:34:37.339Z,14.70
2017-08-29T03:37:03.478Z,13.90
2017-08-29T03:39:29.630Z,13.43
2017-08-29T03:41:55.804Z,13.90
2017-08-29T03:44:22.025Z,14.53
2017-08-29T03:46:48.163Z,13.10
2017-08-29T03:49:14.339Z,14.53
2017-08-29T03:51:40.559Z,14.20
2017-08-29T03:54:06.758Z,12.53
2017-08-29T03:56:32.943Z,13.63
2017-08-29T03:58:59.144Z,12.43
2017-08-29T04:01:25.291Z,13.33
2017-08-29T04:03:51.468Z,13.87
2017-08-29T04:06:17.614Z,12.47
2017-08-29T04:08:43.801Z,12.10
2017-08-29T04:11:09.952Z,12.90
2017-08-29T04:13:36.136Z,11.20
2017-08-29T04:16:02.274Z,11.70
2017-08-29T04:18:28.427Z,12.50
2017-08-29T04:20:54.608Z,12.53
2017-08-29T04:23:20.772Z,11.67
2017-08-29T04:25:46.910Z,12.07
2017-08-29T04:28:13.130Z,11.03
2017-08-29T04:30:39.293Z,11.90
2017-08-29T04:33:05.440Z,10.67
2017-08-29T04:35:31.610Z,10.37
2017-08-29T04:37:57.775Z,11.47
2017-08-29T04:40:23.954Z,10.43
2017-08-29T04:42:50.107Z,10.33
2017-08-29T04:45:16.312Z,10.47
2017-08-29T04:47:42.476Z,9.60
2017-08-29T04:50:08.651Z,11.57
2017-08-29T04:52:34.798Z,11.17
2017-08-29T04:55:01.007Z,10.20
2017-08-29T04:57:27.196Z,11.10
2017-08-29T04:59:53.386Z,10.60
2017-08-29T05:02:19.555Z,12.43
2017-08-29T05:04:45.712Z,10.10
2017-08-29T05:07:11.942Z,11.20
2017-08-29T05:09:38.119Z,12.60
2017-08-29T05:12:04.327Z,11.70
2017-08-29T05:14:30.479Z,11.90
2017-08-29T05:16:56.670Z,11.40
2017-08-29T05:19:22.929Z,10.70
2017-08-29T05:21:49.720Z,11.10
2017-08-29T05:24:15.912Z,11.40
2017-08-29T05:26:42.114Z,11.00
2017-08-29T05:29:08.302Z,10.17
2017-08-29T05:31:34.455Z,9.90
2017-08-29T05:34:00.588Z,11.73
2017-08-29T05:36:26.772Z,10.57
2017-08-29T05:38:52.933Z,11.30
2017-08-29T05:41:19.115Z,11.87
2017-08-29T05:43:45.247Z,10.27
2017-08-29T05:46:11.457Z,10.70
2017-08-29T05:48:37.675Z,10.77
2017-08-29T05:51:04.018Z,10.97
2017-08-29T05:53:30.176Z,10.40
2017-08-29T05:55:56.404Z,11.10
2017-08-29T05:58:22.574Z,10.43
2017-08-29T06:00:48.754Z,10.03
2017-08-29T06:03:14.948Z,9.70
2017-08-29T06:05:41.187Z,10.47
2017-08-29T06:08:07.360Z,10.13
2017-08-29T06:10:33.544Z,8.97
2017-08-29T06:12:59.720Z,9.87
2017-08-29T06:15:25.884Z,10.67
2017-08-29T06:17:52.103Z,8.63
2017-08-29T06:20:18.239Z,10.23
2017-08-29T06:22:44.400Z,8.77
2017-08-29T06:25:11.777Z,10.23
2017-08-29T06:27:37.958Z,10.13
2017-08-29T06:30:04.112Z,9.60
2017-08-29T06:32:30.299Z,8.60
2017-08-29T06:34:56.522Z,10.43
2017-08-29T06:37:22.708Z,10.20
2017-08-29T06:39:48.835Z,9.47
2017-08-29T06:42:15.021Z,8.60
2017-08-29T06:44:41.142Z,11.80
2017-08-29T06:47:07.259Z,9.37
2017-08-29T06:49:33.455Z,9.10
2017-08-29T06:51:59.624Z,10.23
2017-08-29T06:54:25.812Z,10.30
2017-08-29T06:56:51.965Z,13.17
2017-08-29T06:59:18.114Z,11.77
2017-08-29T07:01:44.252Z,10.70
2017-08-29T07:04:10.420Z,10.70
2017-08-29T07:06:36.559Z,31.30
2017-08-29T07:09:02.756Z,15.97
2017-08-29T07:11:29.143Z,11.03
2017-08-29T07:13:55.325Z,10.70
2017-08-29T07:16:21.525Z,10.50
2017-08-29T07:18:47.699Z,8.83
2017-08-29T07:21:13.880Z,9.97
2017-08-29T07:23:40.028Z,9.00
2017-08-29T07:26:06.191Z,7.63
2017-08-29T07:28:32.334Z,7.57
2017-08-29T07:30:58.468Z,9.27
2017-08-29T07:33:24.647Z,9.30
2017-08-29T07:35:50.814Z,8.67
2017-08-29T07:38:16.940Z,7.63
2017-08-29T07:40:43.074Z,7.00
2017-08-29T07:43:09.262Z,7.70
2017-08-29T07:45:35.483Z,7.13
2017-08-29T07:48:01.651Z,6.83
2017-08-29T07:50:27.838Z,7.10
2017-08-29T07:52:54.003Z,8.00
2017-08-29T07:55:20.208Z,6.63
2017-08-29T07:57:46.375Z,7.70
2017-08-29T08:00:12.536Z,7.33
2017-08-29T08:02:38.687Z,7.80
2017-08-29T08:05:05.690Z,7.97
2017-08-29T08:07:31.936Z,7.67
2017-08-29T08:09:58.356Z,7.80
2017-08-29T08:12:24.534Z,6.53
2017-08-29T08:14:50.753Z,7.27
2017-08-29T08:17:16.883Z,6.73
2017-08-29T08:19:43.055Z,6.90
2017-08-29T08:22:09.195Z,6.60
2017-08-29T08:24:35.342Z,7.57
2017-08-29T08:27:01.538Z,7.53
2017-08-29T08:29:30.033Z,7.70
2017-08-29T08:31:56.234Z,6.70
2017-08-29T08:34:22.374Z,7.60
2017-08-29T08:36:48.514Z,6.80
2017-08-29T08:39:15.991Z,6.67
2017-08-29T08:41:42.195Z,6.67
2017-08-29T08:44:08.351Z,6.17
2017-08-29T08:46:34.539Z,6.00
2017-08-29T08:49:00.692Z,7.07
2017-08-29T08:51:26.852Z,6.77
2017-08-29T08:53:52.994Z,7.77
2017-08-29T08:56:19.212Z,7.47
2017-08-29T08:58:45.491Z,7.23
2017-08-29T09:01:11.655Z,6.70
2017-08-29T09:03:37.827Z,6.83
2017-08-29T09:06:03.983Z,6.67
2017-08-29T09:08:30.116Z,6.60
2017-08-29T09:10:56.852Z,6.37
2017-08-29T09:13:23.006Z,6.77
2017-08-29T09:15:49.243Z,6.00
2017-08-29T09:18:15.412Z,7.50
2017-08-29T09:20:41.607Z,7.33
2017-08-29T09:23:07.783Z,6.43
2017-08-29T09:25:33.910Z,6.80
2017-08-29T09:28:00.105Z,6.90
2017-08-29T09:30:26.288Z,8.23
2017-08-29T09:32:52.462Z,6.80
2017-08-29T09:35:18.585Z,6.93
2017-08-29T09:37:44.750Z,6.37
2017-08-29T09:40:10.893Z,6.73
2017-08-29T09:42:37.059Z,7.03
2017-08-29T09:45:03.210Z,7.63
2017-08-29T09:47:29.464Z,6.47
2017-08-29T09:49:55.660Z,6.40
2017-08-29T09:52:21.850Z,6.60
2017-08-29T09:54:48.027Z,6.27
2017-08-29T09:57:14.232Z,6.10
2017-08-29T09:59:40.435Z,6.60
2017-08-29T10:02:06.592Z,6.70
2017-08-29T10:04:32.735Z,6.50
2017-08-29T10:06:58.906Z,5.93
2017-08-29T10:09:25.064Z,6.10
2017-08-29T10:11:51.318Z,6.83
2017-08-29T10:14:17.487Z,6.97
2017-08-29T10:16:43.633Z,6.10
2017-08-29T10:19:09.776Z,6.67
2017-08-29T10:21:35.947Z,6.00
2017-08-29T10:24:02.133Z,6.97
2017-08-29T10:26:28.254Z,6.90
2017-08-29T10:28:54.421Z,6.60
2017-08-29T10:31:20.548Z,6.70
2017-08-29T10:33:46.708Z,6.60
2017-08-29T10:36:12.891Z,5.30
2017-08-29T10:38:39.080Z,12.37
2017-08-29T10:41:05.211Z,6.20
2017-08-29T10:43:31.359Z,6.50
2017-08-29T10:45:57.511Z,6.83
2017-08-29T10:48:23.654Z,7.10
2017-08-29T10:50:50.635Z,6.90
2017-08-29T10:53:16.799Z,6.70
2017-08-29T10:55:42.982Z,7.13
2017-08-29T10:58:09.200Z,6.63
2017-08-29T11:00:35.343Z,6.50
2017-08-29T11:03:01.511Z,7.17
2017-08-29T11:05:27.663Z,6.97
2017-08-29T11:07:53.882Z,7.00
2017-08-29T11:10:20.057Z,7.17
2017-08-29T11:12:46.219Z,7.77
2017-08-29T11:15:12.371Z,6.67
2017-08-29T11:17:38.526Z,7.20
2017-08-29T11:20:04.702Z,7.60
2017-08-29T11:22:30.886Z,8.23
2017-08-29T11:24:57.067Z,7.47
2017-08-29T11:27:23.234Z,7.37
2017-08-29T11:29:49.418Z,7.40
2017-08-29T11:32:15.602Z,7.20
2017-08-29T11:34:41.783Z,7.40
2017-08-29T11:37:08.427Z,6.67
2017-08-29T11:39:34.718Z,7.90
2017-08-29T11:42:00.879Z,8.00
2017-08-29T11:44:27.070Z,6.93
2017-08-29T11:46:53.243Z,6.90
2017-08-29T11:49:19.451Z,7.57
2017-08-29T11:51:45.611Z,7.83
2017-08-29T11:54:11.800Z,7.60
2017-08-29T11:56:37.955Z,7.00
2017-08-29T11:59:04.131Z,6.80
2017-08-29T12:01:30.293Z,7.10
2017-08-29T12:03:56.443Z,7.43
2017-08-29T12:06:22.611Z,7.30
2017-08-29T12:08:48.768Z,7.73
2017-08-29T12:11:14.965Z,7.60
2017-08-29T12:13:41.086Z,7.83
2017-08-29T12:16:07.247Z,7.57
2017-08-29T12:18:33.382Z,8.10
2017-08-29T12:20:59.554Z,7.83
2017-08-29T12:23:25.682Z,6.63
2017-08-29T12:25:51.851Z,7.10
2017-08-29T12:28:17.978Z,6.40
2017-08-29T12:30:44.118Z,6.90
2017-08-29T12:33:10.230Z,6.90
2017-08-29T12:35:36.379Z,6.87
2017-08-29T12:38:02.500Z,6.80
2017-08-29T12:40:28.641Z,7.87
2017-08-29T12:42:54.828Z,7.43
2017-08-29T12:45:20.995Z,6.13
2017-08-29T12:47:47.143Z,7.33
2017-08-29T12:50:13.282Z,6.50
2017-08-29T12:52:39.403Z,7.57
2017-08-29T12:55:05.595Z,6.83
2017-08-29T12:57:31.771Z,6.10
2017-08-29T12:59:57.974Z,6.03
2017-08-29T13:02:24.127Z,5.83
2017-08-29T13:04:50.264Z,6.33
2017-08-29T13:07:16.422Z,5.87
2017-08-29T13:09:42.543Z,6.50
2017-08-29T13:12:09.604Z,5.80
2017-08-29T13:14:36.426Z,6.13
2017-08-29T13:17:02.599Z,6.50
2017-08-29T13:19:28.710Z,6.10
2017-08-29T13:21:54.871Z,6.00
2017-08-29T13:24:21.163Z,4.50
2017-08-29T13:26:47.367Z,4.80
2017-08-29T13:29:13.508Z,5.83
2017-08-29T13:31:39.668Z,5.50
2017-08-29T13:34:05.793Z,6.10
2017-08-29T13:36:31.925Z,6.50
2017-08-29T13:38:58.083Z,5.90
2017-08-29T13:41:24.219Z,6.40
2017-08-29T13:43:50.360Z,6.73
2017-08-29T13:46:16.604Z,6.57
2017-08-29T13:48:42.760Z,5.20
2017-08-29T13:51:08.890Z,6.30
2017-08-29T13:53:35.023Z,6.13
2017-08-29T13:56:03.063Z,7.30
2017-08-29T13:58:29.272Z,7.23
2017-08-29T14:00:57.740Z,6.80
2017-08-29T14:03:23.906Z,6.70
2017-08-29T14:05:50.035Z,8.40
2017-08-29T14:08:16.179Z,7.30
2017-08-29T14:10:42.299Z,7.43
2017-08-29T14:13:08.434Z,8.70
2017-08-29T14:15:34.574Z,8.40
2017-08-29T14:18:00.755Z,7.67
2017-08-29T14:20:26.894Z,8.07
2017-08-29T14:22:53.119Z,7.77
2017-08-29T14:25:19.328Z,7.40
2017-08-29T14:27:45.562Z,7.63
2017-08-29T14:30:11.731Z,9.03
2017-08-29T14:32:37.899Z,8.00
2017-08-29T14:35:04.026Z,7.30
2017-08-29T14:37:30.179Z,7.43
2017-08-29T14:39:56.318Z,8.03
2017-08-29T14:42:22.451Z,7.57
2017-08-29T14:44:48.594Z,8.37
2017-08-29T14:50:22.827Z,7.77
2017-08-29T14:52:49.081Z,7.03
2017-08-29T14:55:15.231Z,8.30
2017-08-29T14:57:44.547Z,9.37
2017-08-29T15:00:10.731Z,7.20
2017-08-29T15:02:36.931Z,8.40
2017-08-29T15:05:03.083Z,8.50
2017-08-29T15:07:29.207Z,8.10
2017-08-29T15:09:55.350Z,7.33
2017-08-29T15:12:22.582Z,7.90
2017-08-29T15:14:48.756Z,7.50
2017-08-29T15:17:14.872Z,9.50
2017-08-29T15:19:41.004Z,8.63
2017-08-29T15:22:07.135Z,8.50
2017-08-29T15:24:33.335Z,8.77
2017-08-29T15:26:59.463Z,10.40
2017-08-29T15:29:25.725Z,8.70
2017-08-29T15:31:51.883Z,8.70
2017-08-29T15:34:18.041Z,8.50
2017-08-29T15:36:44.230Z,8.43
2017-08-29T15:39:10.392Z,7.93
2017-08-29T15:41:36.502Z,8.90
2017-08-29T15:44:02.708Z,8.57
2017-08-29T15:46:28.867Z,8.90
2017-08-29T15:48:56.011Z,8.77
2017-08-29T15:51:22.162Z,8.90
2017-08-29T15:53:48.371Z,8.67
2017-08-29T15:56:16.846Z,9.77
2017-08-29T15:58:43.095Z,9.20
2017-08-29T16:01:09.274Z,8.47
2017-08-29T16:03:35.429Z,9.00
2017-08-29T16:06:01.579Z,12.80
2017-08-29T16:08:27.722Z,10.23
2017-08-29T16:10:54.140Z,11.37
2017-08-29T16:13:20.443Z,8.97
2017-08-29T16:15:46.623Z,33.60
2017-08-29T16:18:12.792Z,18.63
2017-08-29T16:20:38.951Z,12.30
2017-08-29T16:23:05.080Z,52.50
2017-08-29T16:25:31.246Z,18.93
2017-08-29T16:27:57.409Z,16.93
2017-08-29T16:30:23.570Z,37.13
2017-08-29T16:32:49.711Z,20.93
2017-08-29T16:35:15.846Z,13.80
2017-08-29T16:37:42.011Z,10.50
2017-08-29T16:40:08.174Z,9.97
2017-08-29T16:42:34.351Z,10.87
2017-08-29T16:45:00.487Z,25.17
2017-08-29T16:47:26.657Z,26.43
2017-08-29T16:49:52.971Z,13.60
2017-08-29T16:52:19.135Z,17.93
2017-08-29T16:54:45.562Z,24.47
2017-08-29T16:57:11.822Z,17.73
2017-08-29T16:59:37.977Z,56.03
2017-08-29T17:02:04.123Z,29.40
2017-08-29T17:04:30.262Z,13.87
2017-08-29T17:06:56.427Z,10.60
2017-08-29T17:09:22.709Z,10.63
2017-08-29T17:11:48.876Z,44.73
2017-08-29T17:14:16.289Z,13.50
2017-08-29T17:16:42.482Z,14.13
2017-08-29T17:19:08.658Z,10.20
2017-08-29T17:21:34.822Z,10.00
2017-08-29T17:24:01.016Z,13.73
2017-08-29T17:26:27.219Z,9.70
2017-08-29T17:28:53.380Z,12.60
2017-08-29T17:31:19.512Z,30.50
2017-08-29T17:33:45.651Z,20.33
2017-08-29T17:36:11.783Z,33.00
2017-08-29T17:38:37.933Z,53.43
2017-08-29T17:41:04.083Z,39.57
2017-08-29T17:43:30.258Z,41.50
2017-08-29T17:45:56.395Z,14.53
2017-08-29T17:48:22.573Z,17.43
2017-08-29T17:50:48.727Z,13.97
2017-08-29T17:53:14.904Z,14.63
2017-08-29T17:55:41.115Z,13.10
2017-08-29T17:58:07.335Z,12.80
2017-08-29T18:00:33.496Z,12.50
2017-08-29T18:02:59.652Z,12.27
2017-08-29T18:05:25.797Z,12.90
2017-08-29T18:07:51.961Z,14.97
2017-08-29T18:10:18.131Z,13.50
2017-08-29T18:12:44.262Z,18.50
2017-08-29T18:15:10.399Z,13.90
2017-08-29T18:17:36.526Z,12.97
2017-08-29T18:20:02.722Z,12.67
2017-08-29T18:22:28.866Z,13.43
2017-08-29T18:24:55.034Z,13.83
2017-08-29T18:27:21.170Z,13.53
2017-08-29T18:29:47.362Z,13.70
2017-08-29T18:32:13.507Z,13.63
2017-08-29T18:34:39.668Z,14.13
2017-08-29T18:37:05.803Z,13.40
2017-08-29T18:39:31.947Z,13.90
2017-08-29T18:41:58.090Z,14.20
2017-08-29T18:44:24.254Z,12.97
2017-08-29T18:46:50.386Z,12.60
2017-08-29T18:49:16.560Z,13.77
2017-08-29T18:51:42.719Z,13.93
2017-08-29T18:54:08.895Z,14.20
2017-08-29T18:56:35.485Z,13.80
2017-08-29T18:59:02.811Z,13.87
2017-08-29T19:01:28.970Z,16.80
2017-08-29T19:03:55.544Z,15.40
2017-08-29T19:06:21.700Z,17.93
2017-08-29T19:08:47.811Z,13.97
2017-08-29T19:11:13.970Z,17.93
2017-08-29T19:13:40.126Z,16.03
2017-08-29T19:16:06.278Z,15.00
2017-08-29T19:18:32.463Z,15.77
2017-08-29T19:20:58.613Z,15.27
2017-08-29T19:23:24.827Z,17.63
2017-08-29T19:25:51.000Z,15.50
2017-08-29T19:28:17.142Z,18.83
2017-08-29T19:30:43.352Z,16.77
2017-08-29T19:33:09.498Z,16.73
2017-08-29T19:35:35.681Z,16.53
2017-08-29T19:38:01.908Z,16.10
2017-08-29T19:40:28.088Z,16.67
2017-08-29T19:42:54.272Z,15.13
2017-08-29T19:45:20.449Z,15.43
2017-08-29T19:47:46.607Z,14.83
2017-08-29T19:50:12.783Z,16.00
2017-08-29T19:52:38.936Z,15.00
2017-08-29T19:55:05.123Z,13.77
2017-08-29T19:57:31.262Z,16.13
2017-08-29T19:59:57.423Z,14.80
2017-08-29T20:02:23.619Z,17.03
2017-08-29T20:04:49.796Z,15.70
2017-08-29T20:07:15.995Z,16.17
2017-08-29T20:09:42.153Z,16.80
2017-08-29T20:12:08.418Z,29.33
2017-08-29T20:14:34.563Z,15.83
2017-08-29T20:17:00.721Z,15.67
2017-08-29T20:19:26.928Z,18.90
2017-08-29T20:21:54.059Z,17.57
2017-08-29T20:24:20.215Z,18.13
2017-08-29T20:26:46.343Z,16.00
2017-08-29T20:29:12.495Z,17.23
2017-08-29T20:31:38.691Z,16.63
2017-08-29T20:34:04.849Z,17.10
2017-08-29T20:36:30.975Z,16.57
2017-08-29T20:38:57.156Z,15.93
2017-08-29T20:41:23.272Z,15.90
2017-08-29T20:43:49.411Z,15.27
2017-08-29T20:46:15.542Z,17.97
2017-08-29T20:48:41.755Z,16.00
2017-08-29T20:51:07.962Z,17.20
2017-08-29T20:53:34.160Z,16.53
2017-08-29T20:56:00.355Z,16.30
2017-08-29T20:58:26.502Z,17.20
2017-08-29T21:00:52.627Z,18.30
2017-08-29T21:03:19.007Z,16.30
2017-08-29T21:05:45.171Z,16.53
2017-08-29T21:08:11.484Z,15.33
2017-08-29T21:10:37.631Z,17.80
2017-08-29T21:13:03.778Z,15.33
2017-08-29T21:15:29.946Z,15.87
2017-08-29T21:17:56.057Z,17.47
2017-08-29T21:20:22.336Z,17.40
2017-08-29T21:22:48.543Z,16.50
2017-08-29T21:25:14.983Z,17.60
2017-08-29T21:27:41.118Z,17.97
2017-08-29T21:30:07.287Z,16.67
2017-08-29T21:32:33.437Z,17.30
2017-08-29T21:34:59.574Z,17.57
2017-08-29T21:37:25.767Z,17.73
2017-08-29T21:39:51.923Z,16.80
2017-08-29T21:42:18.094Z,17.67
2017-08-29T21:44:44.255Z,18.23
2017-08-29T21:47:10.386Z,17.53
2017-08-29T21:49:36.538Z,15.87
2017-08-29T21:52:02.686Z,17.37
2017-08-29T21:54:28.872Z,17.70
2017-08-29T21:56:55.030Z,19.10
2017-08-29T21:59:21.158Z,69.93
2017-08-29T22:01:47.331Z,23.70
2017-08-29T22:04:13.535Z,20.97
2017-08-29T22:06:39.679Z,19.77
2017-08-29T22:09:05.811Z,19.00
2017-08-29T22:11:31.974Z,20.13
2017-08-29T22:13:58.143Z,19.97
2017-08-29T22:16:24.340Z,19.17
2017-08-29T22:18:50.481Z,18.97
2017-08-29T22:21:16.640Z,18.17
2017-08-29T22:23:42.774Z,18.80
2017-08-29T22:26:08.927Z,18.80
2017-08-29T22:28:35.052Z,18.90
2017-08-29T22:31:01.196Z,19.67
2017-08-29T22:33:27.360Z,19.23
2017-08-29T22:35:53.503Z,19.07
2017-08-29T22:38:19.652Z,19.57
2017-08-29T22:40:45.820Z,18.90
2017-08-29T22:43:11.982Z,18.33
2017-08-29T22:45:38.136Z,18.43
2017-08-29T22:48:04.306Z,18.70
2017-08-29T22:50:30.483Z,20.10
2017-08-29T22:52:56.661Z,19.13
2017-08-29T22:55:22.891Z,21.63
2017-08-29T22:57:49.104Z,19.50
2017-08-29T23:00:15.275Z,21.30
2017-08-29T23:02:41.471Z,19.77
2017-08-29T23:05:07.657Z,18.07
2017-08-29T23:07:33.831Z,18.43
2017-08-29T23:10:00.015Z,18.83
2017-08-29T23:12:26.191Z,19.37
2017-08-29T23:14:52.355Z,19.77
2017-08-29T23:17:18.532Z,18.17
2017-08-29T23:19:44.696Z,21.27
2017-08-29T23:22:10.882Z,18.33
2017-08-29T23:24:37.062Z,18.50
2017-08-29T23:27:03.254Z,19.40
2017-08-29T23:29:29.424Z,19.50
2017-08-29T23:31:55.674Z,20.17
2017-08-29T23:34:21.831Z,19.57
2017-08-29T23:36:47.983Z,20.10
2017-08-29T23:39:14.160Z,21.43
2017-08-29T23:41:40.295Z,20.27
2017-08-29T23:44:06.457Z,22.30
2017-08-29T23:46:32.648Z,21.57
2017-08-29T23:48:58.837Z,22.10
2017-08-29T23:51:24.999Z,22.27
2017-08-29T23:53:51.182Z,20.30
2017-08-29T23:56:17.371Z,21.30
2017-08-29T23:58:43.520Z,20.57
